»·PEaware :: QXE2399 KBOI-KSEA

QXE2399 :: KBOI-KSEA

FLIGHT INFORMATION

Flight Status: Arrived
Operator:
Horizon Air
More flights by this operator :: More flights under this callsign
Pilot: Brian A. (9771)
Aircraft: AIRBUS A320
(A320)
More flights by this aircraft type
Origin: KBOI Boise Air Terminal/Gowen
United States
Destination: KSEA Seattle-Tacoma Intl
United States
More flights between these airports :: More routes between these airports
Route: +BOI3 BOI LICKS PREIS PDT CHINS2
File this flight plan on PilotEdge
Remarks: Default scenery, NO 16R / 34L
Altitude:
(Current/Filed)
32,000ft
Speed:
(Current/Filed)
450kts
Departed: 07-Jan-18 12:40 PM
Arrived: 07-Jan-18 01:50 PM
Distance/Time
Traveled:
346nm/1:10
Distance/Time
To Go:
Arrived

Flight Plot

Page will automatically refresh every two minutes.

Flight plan parsing failed; only flown route is shown


Map Options




Map Legend


Flown Route
Filed Route
Departure Airport
Arrival Airport
Navaid (VOR, NDB)
Fix

Horizontal Profiles

Position Reports

Time Latitude Longitude Heading Altitude Ground
Speed
07-Jan-18 12:18 43.567623 -116.218830 210 2885ft 0kts
07-Jan-18 12:19 43.567623 -116.218830 210 2885ft 0kts
07-Jan-18 12:20 43.567623 -116.218830 210 2885ft 0kts
07-Jan-18 12:21 43.567623 -116.218830 210 2885ft 0kts
07-Jan-18 12:22 43.567623 -116.218830 210 2885ft 0kts
07-Jan-18 12:23 43.567623 -116.218830 210 2885ft 0kts
07-Jan-18 12:24 43.567623 -116.218830 210 2885ft 0kts
07-Jan-18 12:25 43.567623 -116.218830 210 2885ft 0kts
07-Jan-18 12:26 43.567623 -116.218830 210 2885ft 0kts
07-Jan-18 12:27 43.567623 -116.218830 210 2885ft 0kts
07-Jan-18 12:28 43.567623 -116.218830 210 2885ft 0kts
07-Jan-18 12:29 43.567623 -116.218830 210 2885ft 0kts
07-Jan-18 12:30 43.567623 -116.218830 210 2885ft 0kts
07-Jan-18 12:31 43.567623 -116.218830 210 2885ft 0kts
07-Jan-18 12:32 43.567716 -116.218754 210 2885ft 2kts
07-Jan-18 12:33 43.568014 -116.218508 210 2885ft 0kts
07-Jan-18 12:34 43.568014 -116.218508 210 2885ft 0kts
07-Jan-18 12:35 43.568013 -116.218508 210 2885ft 0kts
07-Jan-18 12:36 43.568013 -116.218509 210 2885ft 0kts
07-Jan-18 12:37 43.568012 -116.218509 210 2885ft 0kts
07-Jan-18 12:38 43.568011 -116.218510 210 2885ft 0kts
07-Jan-18 12:39 43.568011 -116.218511 210 2885ft 0kts
07-Jan-18 12:40 43.566785 -116.216438 180 2885ft 0kts
07-Jan-18 12:41 43.566784 -116.216438 180 2885ft 0kts
07-Jan-18 12:42 43.564338 -116.215724 118 2885ft 19kts
07-Jan-18 12:43 43.561109 -116.206140 116 2885ft 35kts
07-Jan-18 12:44 43.559384 -116.202596 245 2885ft 0kts
07-Jan-18 12:45 43.559144 -116.203003 220 2885ft 9kts
07-Jan-18 12:46 43.567449 -116.228933 296 3207ft 157kts
07-Jan-18 12:47 43.585176 -116.283503 295 5596ft 177kts
07-Jan-18 12:48 43.606807 -116.359195 291 7197ft 246kts
07-Jan-18 12:49 43.650680 -116.438728 340 9660ft 291kts
07-Jan-18 12:50 43.716770 -116.473408 333 11448ft 328kts
07-Jan-18 12:51 43.806157 -116.527190 333 13458ft 360kts
07-Jan-18 12:52 43.899918 -116.582890 332 15790ft 371kts
07-Jan-18 12:53 43.994951 -116.639696 332 16274ft 373kts
07-Jan-18 12:54 44.107983 -116.708018 328 18744ft 383kts
07-Jan-18 12:55 44.180772 -116.778521 312 20405ft 384kts
07-Jan-18 12:56 44.257301 -116.884293 312 22206ft 392kts
07-Jan-18 12:57 44.336208 -116.992529 311 23832ft 400kts
07-Jan-18 12:58 44.416128 -117.103030 311 25255ft 409kts
07-Jan-18 12:59 44.498171 -117.216813 311 26544ft 418kts
07-Jan-18 13:00 44.581493 -117.332843 311 27756ft 427kts
07-Jan-18 13:01 44.666326 -117.451492 311 28924ft 434kts
07-Jan-18 13:02 44.751207 -117.570740 310 30510ft 428kts
07-Jan-18 13:03 44.834754 -117.688630 310 31998ft 422kts
07-Jan-18 13:04 44.917585 -117.806068 310 32257ft 421kts
07-Jan-18 13:05 44.999895 -117.923194 310 32249ft 419kts
07-Jan-18 13:06 45.081794 -118.040294 310 32259ft 419kts
07-Jan-18 13:07 45.163807 -118.158103 309 32177ft 419kts
07-Jan-18 13:08 45.245275 -118.275586 309 32227ft 417kts
07-Jan-18 13:09 45.326798 -118.393624 309 32219ft 417kts
07-Jan-18 13:10 45.407768 -118.511439 309 32212ft 416kts
07-Jan-18 13:11 45.488470 -118.629359 309 32179ft 416kts
07-Jan-18 13:12 45.569377 -118.748089 309 32140ft 416kts
07-Jan-18 13:13 45.649694 -118.866457 308 32127ft 415kts
07-Jan-18 13:14 45.727628 -118.987270 305 32112ft 408kts
07-Jan-18 13:15 45.800982 -119.111689 305 32157ft 414kts
07-Jan-18 13:16 45.875398 -119.237654 304 32180ft 414kts
07-Jan-18 13:17 45.949880 -119.364553 304 32217ft 414kts
07-Jan-18 13:18 46.023419 -119.490409 304 31404ft 411kts
07-Jan-18 13:19 46.097428 -119.617600 304 30410ft 415kts
07-Jan-18 13:20 46.171468 -119.745396 304 29417ft 414kts
07-Jan-18 13:21 46.244755 -119.872586 304 28424ft 410kts
07-Jan-18 13:22 46.317539 -119.999457 304 27427ft 407kts
07-Jan-18 13:23 46.388763 -120.124013 304 25979ft 395kts
07-Jan-18 13:24 46.458268 -120.246441 304 23361ft 388kts
07-Jan-18 13:25 46.525656 -120.365399 304 21034ft 375kts
07-Jan-18 13:26 46.588586 -120.482288 301 18746ft 360kts
07-Jan-18 13:27 46.644713 -120.600222 301 16458ft 349kts
07-Jan-18 13:28 46.699998 -120.716307 301 16064ft 349kts
07-Jan-18 13:29 46.755306 -120.832979 301 16018ft 349kts
07-Jan-18 13:30 46.810175 -120.949213 300 16000ft 348kts
07-Jan-18 13:31 46.865005 -121.065856 300 15986ft 348kts
07-Jan-18 13:32 46.919811 -121.182926 300 15969ft 348kts
07-Jan-18 13:33 46.974354 -121.299953 300 15951ft 348kts
07-Jan-18 13:34 47.028767 -121.417189 300 15932ft 348kts
07-Jan-18 13:35 47.080789 -121.529626 300 15925ft 317kts
07-Jan-18 13:36 47.130178 -121.637071 300 15929ft 318kts
07-Jan-18 13:37 47.179542 -121.744709 299 15826ft 312kts
07-Jan-18 13:38 47.227583 -121.849901 300 13930ft 308kts
07-Jan-18 13:39 47.274666 -121.953320 300 12151ft 301kts
07-Jan-18 13:40 47.320386 -122.054052 299 11958ft 272kts
07-Jan-18 13:41 47.357952 -122.137445 298 11964ft 221kts
07-Jan-18 13:42 47.414072 -122.167802 358 11116ft 245kts
07-Jan-18 13:43 47.480513 -122.161052 358 10094ft 239kts
07-Jan-18 13:44 47.549646 -122.156385 358 8497ft 257kts
07-Jan-18 13:45 47.623188 -122.153470 358 7009ft 265kts
07-Jan-18 13:46 47.692930 -122.151091 358 6977ft 252kts
07-Jan-18 13:47 47.762869 -122.149159 352 5715ft 256kts
07-Jan-18 13:48 47.787644 -122.216542 231 4592ft 204kts
07-Jan-18 13:49 47.755634 -122.287399 214 3951ft 205kts
07-Jan-18 13:50 47.702792 -122.305750 180 3983ft 186kts
07-Jan-18 13:51 47.652337 -122.306072 180 3987ft 181kts
07-Jan-18 13:52 47.603255 -122.306500 180 3988ft 160kts
07-Jan-18 13:53 47.558559 -122.306889 180 3724ft 158kts
07-Jan-18 13:54 47.512605 -122.307266 178 1884ft 174kts
07-Jan-18 13:55 47.465359 -122.307698 180 561ft 159kts
07-Jan-18 13:56 47.445629 -122.307756 159 447ft 22kts
07-Jan-18 13:57 47.445653 -122.306388 101 447ft 0kts
07-Jan-18 13:58 47.446156 -122.306143 8 447ft 6kts
07-Jan-18 13:59 47.447848 -122.303082 59 447ft 6kts
07-Jan-18 14:00 47.447929 -122.302920 34 447ft 0kts
07-Jan-18 14:01 47.447929 -122.302920 34 447ft 0kts
07-Jan-18 14:02 47.447929 -122.302920 34 447ft 0kts
07-Jan-18 14:03 47.447929 -122.302920 34 447ft 0kts

Navigation Log

Ident Type
Flight plan parsing failed, navigation log unavailable